createdAt,value
2023-10-25T00:01:12.881Z,97079.03
2023-10-25T00:03:39.646Z,97075.31
2023-10-25T00:06:06.535Z,97069.78
2023-10-25T00:08:33.004Z,97068.06
2023-10-25T00:11:07.756Z,97060.56
2023-10-25T00:13:34.998Z,97078.88
2023-10-25T00:16:02.604Z,97072.75
2023-10-25T00:18:29.549Z,97074.50
2023-10-25T00:20:56.214Z,97057.78
2023-10-25T00:23:23.467Z,97074.25
2023-10-25T00:25:51.136Z,97066.44
2023-10-25T00:28:18.698Z,97075.88
2023-10-25T00:30:45.782Z,97075.66
2023-10-25T00:33:12.646Z,97076.78
2023-10-25T00:35:39.719Z,97081.31
2023-10-25T00:38:06.462Z,97074.38
2023-10-25T00:40:33.002Z,97069.53
2023-10-25T00:43:15.736Z,97071.13
2023-10-25T00:45:57.219Z,97067.06
2023-10-25T00:48:24.730Z,97069.66
2023-10-25T00:50:52.431Z,97076.75
2023-10-25T00:53:19.509Z,97064.66
2023-10-25T00:55:46.692Z,97060.53
2023-10-25T00:58:13.604Z,97059.75
2023-10-25T01:00:40.602Z,97057.53
2023-10-25T01:03:08.457Z,97060.53
2023-10-25T01:05:35.984Z,97053.06
2023-10-25T01:08:02.784Z,97062.00
2023-10-25T01:10:29.544Z,97059.81
2023-10-25T01:12:56.306Z,97067.88
2023-10-25T01:15:26.153Z,97061.44
2023-10-25T01:17:53.106Z,97058.78
2023-10-25T01:20:20.362Z,97062.13
2023-10-25T01:22:48.627Z,97061.53
2023-10-25T01:25:15.964Z,97057.88
2023-10-25T01:27:42.675Z,97056.59
2023-10-25T01:30:09.861Z,97051.31
2023-10-25T01:32:36.515Z,97047.75
2023-10-25T01:35:03.080Z,97047.63
2023-10-25T01:37:29.853Z,97045.31
2023-10-25T01:39:56.382Z,97044.19
2023-10-25T01:42:22.950Z,97054.56
2023-10-25T01:44:49.447Z,97039.69
2023-10-25T01:47:15.902Z,97036.59
2023-10-25T01:49:44.307Z,97036.22
2023-10-25T01:52:10.901Z,97033.81
2023-10-25T01:54:37.657Z,97031.50
2023-10-25T01:57:04.531Z,96991.06
2023-10-25T01:59:31.126Z,97035.41
2023-10-25T02:01:57.889Z,97033.81
2023-10-25T02:04:24.759Z,97032.78
2023-10-25T02:06:53.280Z,97029.09
2023-10-25T02:09:20.658Z,97006.94
2023-10-25T02:11:48.006Z,97019.75
2023-10-25T02:14:15.100Z,97021.16
2023-10-25T02:16:43.142Z,97013.28
2023-10-25T02:19:10.229Z,97015.94
2023-10-25T02:21:37.246Z,97012.59
2023-10-25T02:24:05.694Z,97011.69
2023-10-25T02:26:32.849Z,97015.03
2023-10-25T02:29:01.012Z,97008.91
2023-10-25T02:31:27.576Z,97010.06
2023-10-25T02:33:54.188Z,96999.66
2023-10-25T02:36:20.706Z,96997.25
2023-10-25T02:38:50.609Z,96990.88
2023-10-25T02:41:17.288Z,96980.75
2023-10-25T02:43:44.939Z,96982.38
2023-10-25T02:46:13.564Z,96987.09
2023-10-25T02:48:40.543Z,96980.38
2023-10-25T02:51:07.271Z,96984.84
2023-10-25T02:53:34.082Z,96980.66
2023-10-25T02:56:05.544Z,96977.94
2023-10-25T02:58:32.853Z,96974.13
2023-10-25T03:01:00.158Z,96965.78
2023-10-25T03:03:34.801Z,96960.22
2023-10-25T03:06:01.477Z,96958.06
2023-10-25T03:08:28.972Z,96948.28
2023-10-25T03:10:56.476Z,96958.75
2023-10-25T03:13:23.493Z,96945.06
2023-10-25T03:15:50.249Z,96934.91
2023-10-25T03:18:16.910Z,96943.22
2023-10-25T03:20:43.597Z,96941.78
2023-10-25T03:23:10.233Z,96936.75
2023-10-25T03:25:36.792Z,96934.41
2023-10-25T03:28:03.376Z,96923.47
2023-10-25T03:30:30.099Z,96935.09
2023-10-25T03:32:56.605Z,96935.56
2023-10-25T03:35:23.319Z,96931.25
2023-10-25T03:37:49.827Z,96927.66
2023-10-25T03:40:16.454Z,96926.84
2023-10-25T03:42:43.068Z,96907.84
2023-10-25T03:45:10.615Z,96923.97
2023-10-25T03:47:38.891Z,96919.22
2023-10-25T03:50:07.917Z,96916.13
2023-10-25T03:52:37.385Z,96915.41
2023-10-25T03:55:04.424Z,96910.19
2023-10-25T03:57:30.994Z,96910.28
2023-10-25T03:59:57.663Z,96903.00
2023-10-25T04:02:24.219Z,96900.94
2023-10-25T04:04:50.743Z,96875.50
2023-10-25T04:07:17.230Z,96896.63
2023-10-25T04:09:43.964Z,96908.03
2023-10-25T04:12:13.661Z,96903.66
2023-10-25T04:14:45.549Z,96897.44
2023-10-25T04:17:12.790Z,96891.84
2023-10-25T04:19:40.227Z,96884.59
2023-10-25T04:22:06.966Z,96884.25
2023-10-25T04:24:34.107Z,96878.72
2023-10-25T04:27:03.010Z,96875.34
2023-10-25T04:29:29.819Z,96876.94
2023-10-25T04:31:57.056Z,96879.09
2023-10-25T04:34:23.990Z,96870.66
2023-10-25T04:36:50.807Z,96866.63
2023-10-25T04:39:17.390Z,96858.56
2023-10-25T04:41:44.081Z,96859.38
2023-10-25T04:44:10.580Z,96851.88
2023-10-25T04:46:37.364Z,96859.66
2023-10-25T04:49:04.356Z,96861.50
2023-10-25T04:51:31.140Z,96854.66
2023-10-25T04:53:57.882Z,96853.78
2023-10-25T04:56:24.664Z,96853.63
2023-10-25T04:58:51.220Z,96852.59
2023-10-25T05:01:17.932Z,96845.84
2023-10-25T05:03:46.020Z,96842.44
2023-10-25T05:06:13.226Z,96840.75
2023-10-25T05:08:39.990Z,96835.81
2023-10-25T05:11:08.932Z,96835.28
2023-10-25T05:13:35.732Z,96833.56
2023-10-25T05:16:02.792Z,96812.88
2023-10-25T05:18:29.744Z,96814.72
2023-10-25T05:21:03.160Z,96818.66
2023-10-25T05:23:34.313Z,96813.38
2023-10-25T05:26:02.987Z,96809.47
2023-10-25T05:28:30.975Z,96806.06
2023-10-25T05:31:01.964Z,96793.50
2023-10-25T05:33:31.052Z,96794.91
2023-10-25T05:35:58.874Z,96771.19
2023-10-25T05:38:25.570Z,96783.72
2023-10-25T05:40:54.834Z,96776.81
2023-10-25T05:43:28.702Z,96773.63
2023-10-25T05:45:55.997Z,96775.69
2023-10-25T05:48:22.951Z,96769.00
2023-10-25T05:50:51.626Z,96767.75
2023-10-25T05:53:20.046Z,96758.88
2023-10-25T05:55:47.534Z,96751.53
2023-10-25T05:58:14.607Z,96751.03
2023-10-25T06:00:41.691Z,96751.28
2023-10-25T06:03:21.450Z,96743.69
2023-10-25T06:06:01.634Z,96740.31
2023-10-25T06:08:29.207Z,96741.09
2023-10-25T06:10:56.333Z,96742.72
2023-10-25T06:13:23.280Z,96734.88
2023-10-25T06:15:50.073Z,96726.38
2023-10-25T06:18:17.274Z,96722.22
2023-10-25T06:20:44.004Z,96729.94
2023-10-25T06:23:10.605Z,96716.53
2023-10-25T06:25:37.242Z,96715.84
2023-10-25T06:28:04.042Z,96720.09
2023-10-25T06:30:30.767Z,96703.03
2023-10-25T06:33:00.573Z,96699.22
2023-10-25T06:35:27.128Z,96702.78
2023-10-25T06:37:53.975Z,96699.91
2023-10-25T06:40:21.103Z,96700.03
2023-10-25T06:42:47.971Z,96697.25
2023-10-25T06:45:15.928Z,96684.09
2023-10-25T06:47:46.004Z,96650.91
2023-10-25T06:50:14.459Z,96683.69
2023-10-25T06:52:41.587Z,96680.41
2023-10-25T06:55:09.016Z,96657.84
2023-10-25T06:57:36.883Z,96671.44
2023-10-25T07:00:07.792Z,96677.06
2023-10-25T07:02:39.034Z,96667.41
2023-10-25T07:05:12.533Z,96671.31
2023-10-25T07:07:40.979Z,96663.75
2023-10-25T07:10:09.654Z,96664.06
2023-10-25T07:12:36.876Z,96651.94
2023-10-25T07:15:03.934Z,96658.50
2023-10-25T07:17:30.734Z,96659.09
2023-10-25T07:19:59.659Z,96647.91
2023-10-25T07:22:29.320Z,96654.81
2023-10-25T07:24:56.859Z,96640.81
2023-10-25T07:27:23.882Z,96639.72
2023-10-25T07:29:50.729Z,96634.78
2023-10-25T07:32:17.298Z,96639.13
2023-10-25T07:34:44.230Z,96644.50
2023-10-25T07:37:11.133Z,96642.69
2023-10-25T07:39:37.754Z,96627.50
2023-10-25T07:42:04.542Z,96625.88
2023-10-25T07:44:31.089Z,96638.66
2023-10-25T07:46:57.757Z,96636.59
2023-10-25T07:49:24.437Z,96626.88
2023-10-25T07:51:53.064Z,96621.63
2023-10-25T07:54:21.748Z,96637.06
2023-10-25T07:57:07.310Z,96609.88
2023-10-25T07:59:35.200Z,96598.22
2023-10-25T08:02:01.649Z,96600.75
2023-10-25T08:04:28.167Z,96587.75
2023-10-25T08:06:55.737Z,96585.97
2023-10-25T08:09:22.522Z,96575.34
2023-10-25T08:11:49.080Z,96583.59
2023-10-25T08:14:15.595Z,96580.44
2023-10-25T08:16:43.401Z,96588.13
2023-10-25T08:19:10.437Z,96586.59
2023-10-25T08:21:37.414Z,96579.22
2023-10-25T08:24:06.484Z,96588.31
2023-10-25T08:26:38.210Z,96582.81
2023-10-25T08:29:05.632Z,96578.03
2023-10-25T08:31:32.614Z,96571.88
2023-10-25T08:34:00.327Z,96576.69
2023-10-25T08:36:29.987Z,96569.25
2023-10-25T08:38:57.177Z,96572.72
2023-10-25T08:41:28.189Z,96554.88
2023-10-25T08:43:55.269Z,96561.38
2023-10-25T08:46:23.304Z,96540.47
2023-10-25T08:48:53.611Z,96554.22
2023-10-25T08:51:20.332Z,96552.88
2023-10-25T08:53:49.832Z,96551.78
2023-10-25T08:56:19.094Z,96547.53
2023-10-25T08:58:45.896Z,96552.69
2023-10-25T09:01:12.559Z,96546.78
2023-10-25T09:03:40.976Z,96534.50
2023-10-25T09:06:09.433Z,96542.06
2023-10-25T09:08:36.625Z,96529.75
2023-10-25T09:11:04.003Z,96529.75
2023-10-25T09:13:32.134Z,96531.34
2023-10-25T09:16:10.246Z,96522.06
2023-10-25T09:18:38.554Z,96523.41
2023-10-25T09:21:11.463Z,96511.66
2023-10-25T09:23:39.191Z,96517.09
2023-10-25T09:26:16.337Z,96517.81
2023-10-25T09:28:44.206Z,96508.31
2023-10-25T09:31:28.851Z,96504.56
2023-10-25T09:34:00.413Z,96502.44
2023-10-25T09:36:28.406Z,96501.41
2023-10-25T09:38:56.152Z,96493.34
2023-10-25T09:41:24.863Z,96478.00
2023-10-25T09:43:53.168Z,96475.06
2023-10-25T09:46:24.393Z,96470.75
2023-10-25T09:48:59.952Z,96465.97
2023-10-25T09:51:56.610Z,96452.44
2023-10-25T09:54:30.777Z,96439.22
2023-10-25T09:56:57.846Z,96431.13
2023-10-25T09:59:26.524Z,96429.56
2023-10-25T10:01:55.204Z,96424.56
2023-10-25T10:04:55.877Z,96425.09
2023-10-25T10:07:35.491Z,96421.69
2023-10-25T10:10:21.958Z,96406.53
2023-10-25T10:12:49.051Z,96405.16
2023-10-25T10:15:15.755Z,96407.28
2023-10-25T10:17:45.849Z,96399.34
2023-10-25T10:20:29.249Z,96391.41
2023-10-25T10:23:05.939Z,96369.03
2023-10-25T10:25:46.786Z,96384.94
2023-10-25T10:28:14.187Z,96378.09
2023-10-25T10:30:42.290Z,96377.84
2023-10-25T10:33:14.283Z,96371.53
2023-10-25T10:35:46.168Z,96363.22
2023-10-25T10:38:12.899Z,96358.78
2023-10-25T10:40:39.520Z,96346.81
2023-10-25T10:43:07.471Z,96345.22
2023-10-25T10:45:34.796Z,96330.59
2023-10-25T10:48:21.973Z,96323.44
2023-10-25T10:50:50.386Z,96321.31
2023-10-25T10:53:17.104Z,96308.59
2023-10-25T10:55:44.884Z,96302.16
2023-10-25T10:58:12.493Z,96301.38
2023-10-25T11:00:45.945Z,96284.63
2023-10-25T11:03:12.608Z,96278.22
2023-10-25T11:05:39.376Z,96278.53
2023-10-25T11:08:12.358Z,96276.41
2023-10-25T11:10:40.343Z,96276.41
2023-10-25T11:13:08.679Z,96257.50
2023-10-25T11:15:35.138Z,96269.28
2023-10-25T11:18:02.615Z,96267.16
2023-10-25T11:20:29.178Z,96259.44
2023-10-25T11:22:56.921Z,96267.13
2023-10-25T11:25:28.695Z,96269.28
2023-10-25T11:27:57.218Z,96256.78
2023-10-25T11:30:25.136Z,96250.13
2023-10-25T11:32:53.649Z,96252.78
2023-10-25T11:35:25.883Z,96263.69
2023-10-25T11:37:54.003Z,96239.22
2023-10-25T11:40:21.167Z,96244.22
2023-10-25T11:42:47.874Z,96234.91
2023-10-25T11:45:18.849Z,96238.38
2023-10-25T11:47:49.418Z,96236.53
2023-10-25T11:50:16.235Z,96223.50
2023-10-25T11:52:42.782Z,96213.38
2023-10-25T11:55:11.350Z,96206.44
2023-10-25T11:57:40.117Z,96211.78
2023-10-25T12:00:10.091Z,96210.22
2023-10-25T12:02:40.229Z,96208.63
2023-10-25T12:05:07.047Z,96190.53
2023-10-25T12:07:33.542Z,96190.00
2023-10-25T12:10:00.607Z,96188.41
2023-10-25T12:12:27.307Z,96196.91
2023-10-25T12:14:53.847Z,96186.28
2023-10-25T12:17:20.360Z,96175.38
2023-10-25T12:19:49.387Z,96162.06
2023-10-25T12:22:16.231Z,96170.59
2023-10-25T12:24:44.940Z,96167.69
2023-10-25T12:27:14.005Z,96163.94
2023-10-25T12:29:40.656Z,96158.63
2023-10-25T12:32:08.134Z,96157.56
2023-10-25T12:34:34.878Z,96161.28
2023-10-25T12:37:01.438Z,96146.41
2023-10-25T12:39:28.175Z,96147.75
2023-10-25T12:41:54.799Z,96142.66
2023-10-25T12:44:21.550Z,96137.88
2023-10-25T12:46:48.113Z,96142.94
2023-10-25T12:49:16.823Z,96118.47
2023-10-25T12:51:43.644Z,96143.19
2023-10-25T12:54:10.194Z,96129.59
2023-10-25T12:56:38.679Z,96124.56
2023-10-25T12:59:05.400Z,96123.75
2023-10-25T13:01:32.013Z,96119.19
2023-10-25T13:04:00.009Z,96120.25
2023-10-25T13:06:28.105Z,96116.22
2023-10-25T13:08:56.584Z,96119.69
2023-10-25T13:11:23.287Z,96114.63
2023-10-25T13:13:49.974Z,96115.44
2023-10-25T13:16:16.653Z,96106.63
2023-10-25T13:18:43.444Z,96106.09
2023-10-25T13:21:13.236Z,96103.44
2023-10-25T13:23:39.907Z,96106.13
2023-10-25T13:26:07.667Z,96098.66
2023-10-25T13:28:34.128Z,96095.16
2023-10-25T13:31:00.825Z,96097.81
2023-10-25T13:33:27.785Z,96094.59
2023-10-25T13:35:54.846Z,96091.41
2023-10-25T13:38:21.323Z,96093.78
2023-10-25T13:40:49.376Z,96091.66
2023-10-25T13:43:17.026Z,96094.59
2023-10-25T13:45:46.005Z,96082.88
2023-10-25T13:48:13.135Z,96070.31
2023-10-25T13:50:40.019Z,96070.88
2023-10-25T13:53:06.582Z,96083.34
2023-10-25T13:55:38.010Z,96076.91
2023-10-25T13:58:04.497Z,96064.66
2023-10-25T14:00:31.351Z,96060.16
2023-10-25T14:02:57.917Z,96053.50
2023-10-25T14:05:24.586Z,96049.44
2023-10-25T14:07:51.098Z,96046.47
2023-10-25T14:10:17.863Z,96036.34
2023-10-25T14:12:44.406Z,96041.13
2023-10-25T14:15:11.638Z,96041.63
2023-10-25T14:17:39.345Z,96038.41
2023-10-25T14:20:06.778Z,96029.88
2023-10-25T14:22:33.302Z,96024.03
2023-10-25T14:24:59.851Z,96027.19
2023-10-25T14:27:26.333Z,96017.03
2023-10-25T14:29:52.882Z,96021.81
2023-10-25T14:32:19.502Z,96021.81
2023-10-25T14:34:46.567Z,96013.31
2023-10-25T14:37:13.126Z,96024.72
2023-10-25T14:39:39.605Z,96010.03
2023-10-25T14:42:06.427Z,96010.31
2023-10-25T14:44:33.207Z,96007.91
2023-10-25T14:47:00.348Z,96010.50
2023-10-25T14:49:26.936Z,96014.78
2023-10-25T14:51:53.436Z,96026.75
2023-10-25T14:54:19.884Z,96029.75
2023-10-25T14:56:46.592Z,96022.84
2023-10-25T14:59:13.091Z,96012.75
2023-10-25T15:01:39.802Z,96021.88
2023-10-25T15:04:06.772Z,96014.41
2023-10-25T15:06:33.499Z,96005.59
2023-10-25T15:09:00.013Z,95995.97
2023-10-25T15:11:26.727Z,96004.31
2023-10-25T15:13:53.221Z,95984.69
2023-10-25T15:16:20.047Z,95994.19
2023-10-25T15:18:46.747Z,95990.75
2023-10-25T15:21:14.896Z,95998.47
2023-10-25T15:23:41.983Z,95997.13
2023-10-25T15:26:08.809Z,95981.72
2023-10-25T15:28:36.958Z,95997.38
2023-10-25T15:31:09.132Z,95998.19
2023-10-25T15:33:37.043Z,95970.53
2023-10-25T15:36:04.810Z,95975.28
2023-10-25T15:38:31.960Z,95968.34
2023-10-25T15:41:22.415Z,95963.91
2023-10-25T15:43:49.254Z,95971.91
2023-10-25T15:46:21.726Z,95967.47
2023-10-25T15:48:53.678Z,95972.28
2023-10-25T15:51:23.830Z,95981.06
2023-10-25T15:53:54.740Z,95992.50
2023-10-25T15:56:22.078Z,95988.25
2023-10-25T15:58:48.552Z,95998.09
2023-10-25T16:01:31.805Z,95993.31
2023-10-25T16:04:05.645Z,95991.16
2023-10-25T16:06:32.516Z,95974.94
2023-10-25T16:08:59.154Z,95954.78
2023-10-25T16:11:30.237Z,95947.72
2023-10-25T16:13:56.764Z,95926.72
2023-10-25T16:16:23.313Z,95939.75
2023-10-25T16:18:49.921Z,95945.34
2023-10-25T16:21:18.500Z,95951.22
2023-10-25T16:23:46.600Z,95940.09
2023-10-25T16:26:14.873Z,95950.00
2023-10-25T16:28:43.440Z,95947.63
2023-10-25T16:31:10.273Z,95949.19
2023-10-25T16:33:42.268Z,95938.50
2023-10-25T16:36:12.494Z,95938.03
2023-10-25T16:38:39.400Z,95933.22
2023-10-25T16:41:13.968Z,95930.47
2023-10-25T16:43:41.284Z,95939.03
2023-10-25T16:46:09.064Z,95939.56
2023-10-25T16:48:37.475Z,95941.09
2023-10-25T16:51:12.059Z,95931.06
2023-10-25T16:53:46.211Z,95937.97
2023-10-25T16:56:14.095Z,95938.47
2023-10-25T16:58:46.621Z,95941.38
2023-10-25T17:01:14.986Z,95939.00
2023-10-25T17:03:45.521Z,95942.19
2023-10-25T17:06:13.721Z,95941.94
2023-10-25T17:08:41.479Z,95932.66
2023-10-25T17:11:09.630Z,95935.81
2023-10-25T17:13:38.077Z,95925.16
2023-10-25T17:16:05.775Z,95934.78
2023-10-25T17:18:37.178Z,95932.63
2023-10-25T17:21:09.758Z,95925.69
2023-10-25T17:23:37.421Z,95923.03
2023-10-25T17:26:04.885Z,95921.13
2023-10-25T17:28:32.970Z,95926.25
2023-10-25T17:31:01.086Z,95929.97
2023-10-25T17:33:28.631Z,95927.56
2023-10-25T17:35:55.778Z,95923.56
2023-10-25T17:38:22.502Z,95925.69
2023-10-25T17:40:50.051Z,95931.03
2023-10-25T17:43:16.819Z,95934.78
2023-10-25T17:46:00.371Z,95932.34
2023-10-25T17:48:38.905Z,95931.75
2023-10-25T17:51:10.057Z,95929.94
2023-10-25T17:53:37.128Z,95939.78
2023-10-25T17:56:04.362Z,95939.22
2023-10-25T17:58:31.165Z,95936.84
2023-10-25T18:00:57.711Z,95946.13
2023-10-25T18:03:25.127Z,95951.16
2023-10-25T18:05:52.299Z,95948.47
2023-10-25T18:08:25.514Z,95952.69
2023-10-25T18:10:55.339Z,95951.09
2023-10-25T18:13:22.056Z,95950.56
2023-10-25T18:15:48.626Z,95967.53
2023-10-25T18:18:15.426Z,95963.81
2023-10-25T18:20:42.452Z,95970.75
2023-10-25T18:23:09.439Z,95983.28
2023-10-25T18:25:36.164Z,95979.81
2023-10-25T18:28:02.648Z,95985.69
2023-10-25T18:31:55.798Z,95986.75
2023-10-25T18:33:20.212Z,95986.19
2023-10-25T18:35:48.650Z,95982.00
2023-10-25T18:38:18.195Z,95993.16
2023-10-25T18:40:45.555Z,96009.44
2023-10-25T18:43:15.011Z,96014.25
2023-10-25T18:45:41.652Z,96008.66
2023-10-25T18:48:08.239Z,96008.66
2023-10-25T18:50:36.063Z,96017.16
2023-10-25T18:53:02.612Z,96019.28
2023-10-25T18:55:29.451Z,96020.28
2023-10-25T18:57:56.040Z,96025.41
2023-10-25T19:00:24.913Z,96036.88
2023-10-25T19:02:57.967Z,96007.97
2023-10-25T19:06:25.456Z,96047.00
2023-10-25T19:08:26.685Z,96051.25
2023-10-25T19:10:54.379Z,96055.78
2023-10-25T19:13:20.956Z,96064.81
2023-10-25T19:15:47.808Z,96071.50
2023-10-25T19:18:15.817Z,96080.91
2023-10-25T19:20:42.769Z,96080.09
2023-10-25T19:23:09.687Z,96084.38
2023-10-25T19:25:37.266Z,96087.03
2023-10-25T19:28:04.165Z,96096.63
2023-10-25T19:30:31.918Z,96094.22
2023-10-25T19:32:58.958Z,96100.66
2023-10-25T19:35:25.740Z,96108.69
2023-10-25T19:37:52.374Z,96115.84
2023-10-25T19:40:19.362Z,96119.06
2023-10-25T19:42:45.916Z,96124.94
2023-10-25T19:45:14.657Z,96124.91
2023-10-25T19:47:41.640Z,96132.38
2023-10-25T19:50:10.529Z,96133.47
2023-10-25T19:52:37.038Z,96140.91
2023-10-25T19:55:04.449Z,96144.66
2023-10-25T19:57:30.939Z,96139.88
2023-10-25T19:59:57.424Z,96142.00
2023-10-25T20:02:24.167Z,96149.72
2023-10-25T20:04:50.642Z,96147.84
2023-10-25T20:07:17.271Z,96148.94
2023-10-25T20:09:46.143Z,96151.06
2023-10-25T20:12:12.687Z,96148.94
2023-10-25T20:14:39.192Z,96154.53
2023-10-25T20:17:05.811Z,96151.59
2023-10-25T20:19:32.261Z,96161.50
2023-10-25T20:21:58.909Z,96162.56
2023-10-25T20:24:25.417Z,96165.19
2023-10-25T20:26:52.000Z,96163.34
2023-10-25T20:29:18.557Z,96167.06
2023-10-25T20:31:45.465Z,96183.03
2023-10-25T20:34:11.948Z,96185.19
2023-10-25T20:36:40.345Z,96184.13
2023-10-25T20:39:06.850Z,96187.84
2023-10-25T20:41:33.362Z,96191.03
2023-10-25T20:43:59.995Z,96187.31
2023-10-25T20:46:26.551Z,96187.03
2023-10-25T20:48:53.857Z,96170.56
2023-10-25T20:51:23.776Z,96181.44
2023-10-25T20:53:52.029Z,96205.66
2023-10-25T20:56:18.686Z,96187.81
2023-10-25T20:58:46.365Z,96192.09
2023-10-25T21:01:12.918Z,96185.44
2023-10-25T21:03:39.696Z,96191.03
2023-10-25T21:06:06.926Z,96181.72
2023-10-25T21:08:33.538Z,96186.81
2023-10-25T21:11:02.933Z,96187.31
2023-10-25T21:13:29.583Z,96187.31
2023-10-25T21:15:56.266Z,96192.91
2023-10-25T21:18:23.524Z,96196.38
2023-10-25T21:20:50.822Z,96191.56
2023-10-25T21:23:17.792Z,96185.47
2023-10-25T21:25:44.947Z,96196.34
2023-10-25T21:28:12.017Z,96194.78
2023-10-25T21:30:39.324Z,96198.50
2023-10-25T21:33:07.378Z,96203.31
2023-10-25T21:35:34.451Z,96203.03
2023-10-25T21:38:01.072Z,96207.56
2023-10-25T21:40:27.670Z,96212.34
2023-10-25T21:42:54.313Z,96214.47
2023-10-25T21:45:21.078Z,96218.19
2023-10-25T21:47:50.144Z,96222.72
2023-10-25T21:50:17.064Z,96235.25
2023-10-25T21:52:43.861Z,96226.72
2023-10-25T21:55:10.413Z,96236.03
2023-10-25T21:59:47.150Z,96234.72
2023-10-25T22:00:23.690Z,96230.97
2023-10-25T22:02:50.507Z,96231.22
2023-10-25T22:05:17.239Z,96244.81
2023-10-25T22:07:43.833Z,96246.69
2023-10-25T22:10:10.407Z,96250.41
2023-10-25T22:12:36.965Z,96251.22
2023-10-25T22:15:05.798Z,96255.72
2023-10-25T22:17:32.347Z,96235.78
2023-10-25T22:19:59.144Z,96257.59
2023-10-25T22:22:25.598Z,96257.06
2023-10-25T22:24:52.053Z,96253.91
2023-10-25T22:27:18.620Z,96263.22
2023-10-25T22:29:45.406Z,96255.47
2023-10-25T22:32:11.860Z,96271.44
2023-10-25T22:34:38.556Z,96257.91
2023-10-25T22:37:05.045Z,96278.91
2023-10-25T22:39:31.628Z,96273.59
2023-10-25T22:41:59.309Z,96278.66
2023-10-25T22:44:26.179Z,96279.72
2023-10-25T22:46:52.681Z,96278.91
2023-10-25T22:49:20.856Z,96284.00
2023-10-25T22:51:47.515Z,96286.38
2023-10-25T22:54:14.715Z,96282.66
2023-10-25T22:56:41.374Z,96288.50
2023-10-25T22:59:08.073Z,96285.31
2023-10-25T23:01:34.718Z,96272.81
2023-10-25T23:04:01.576Z,96287.97
2023-10-25T23:06:28.198Z,96295.16
2023-10-25T23:08:54.984Z,96293.81
2023-10-25T23:11:21.737Z,96294.88
2023-10-25T23:13:51.726Z,96304.47
2023-10-25T23:16:18.387Z,96299.13
2023-10-25T23:18:45.044Z,96307.13
2023-10-25T23:21:11.878Z,96300.75
2023-10-25T23:23:38.505Z,96317.25
2023-10-25T23:26:09.195Z,96296.44
2023-10-25T23:28:36.752Z,96306.56
2023-10-25T23:31:07.759Z,96316.97
2023-10-25T23:33:35.517Z,96325.22
2023-10-25T23:36:03.259Z,96320.91
2023-10-25T23:38:30.671Z,96331.00
2023-10-25T23:40:58.968Z,96330.50
2023-10-25T23:43:26.120Z,96328.88
2023-10-25T23:45:52.903Z,96326.22
2023-10-25T23:48:20.041Z,96342.72
2023-10-25T23:50:47.719Z,96336.88
2023-10-25T23:53:15.258Z,96343.53
2023-10-25T23:55:43.260Z,96343.78
2023-10-25T23:58:10.665Z,96344.31
